Time;durP1;ratioP1;P1;durP2;ratioP2;P2;SDS_P1;SDS_P2;PMS_P1;PMS_P2;Temp;Humidity;BMP_temperature;BMP_pressure;BME280_temperature;BME280_humidity;BME280_pressure;Samples;Min_cycle;Max_cycle;Signal;HPM_P1;HPM_P2
2024/02/16 00:01:17;;;;;;;5.70;4.43;;;11.50;99.90;;;;;;4986078;28;20200;-68
2024/02/16 00:03:43;;;;;;;4.50;4.10;;;11.50;99.90;;;;;;4973429;28;20191;-68
2024/02/16 00:06:08;;;;;;;5.17;4.67;;;11.50;99.90;;;;;;4979875;28;20199;-68
2024/02/16 00:08:34;;;;;;;5.87;5.40;;;11.50;99.90;;;;;;4986280;28;20188;-68
2024/02/16 00:11:00;;;;;;;4.77;4.27;;;11.50;99.90;;;;;;4992401;28;20183;-68
2024/02/16 00:13:25;;;;;;;4.70;4.30;;;11.50;99.90;;;;;;4979223;28;20525;-68
2024/02/16 00:15:51;;;;;;;4.47;4.00;;;11.50;99.90;;;;;;4991158;28;20207;-68
2024/02/16 00:18:16;;;;;;;5.53;4.20;;;11.40;99.90;;;;;;4988103;28;20658;-68
2024/02/16 00:20:42;;;;;;;7.30;4.90;;;11.40;99.90;;;;;;4989989;28;20569;-68
2024/02/16 00:23:07;;;;;;;7.10;5.00;;;11.40;99.90;;;;;;4983233;28;20595;-68
2024/02/16 00:25:33;;;;;;;5.60;5.00;;;11.40;99.90;;;;;;4983552;28;20576;-68
2024/02/16 00:27:59;;;;;;;5.87;5.23;;;11.40;99.90;;;;;;4989350;28;20199;-68
2024/02/16 00:30:25;;;;;;;7.13;4.60;;;11.50;99.90;;;;;;4990329;28;20219;-68
2024/02/16 00:32:52;;;;;;;7.30;6.20;;;11.50;99.90;;;;;;4976919;28;20871;-68
2024/02/16 00:35:19;;;;;;;5.33;4.50;;;11.50;99.90;;;;;;4983388;28;20223;-68
2024/02/16 00:37:45;;;;;;;4.77;4.37;;;11.50;99.90;;;;;;4986987;28;20462;-68
2024/02/16 00:40:11;;;;;;;9.53;5.77;;;11.50;99.90;;;;;;4982882;28;20435;-68
2024/02/16 00:42:37;;;;;;;5.40;3.97;;;11.50;99.90;;;;;;4979975;28;20432;-68
2024/02/16 00:45:03;;;;;;;10.43;5.40;;;11.60;99.90;;;;;;4981395;28;20447;-68
2024/02/16 00:47:29;;;;;;;8.70;5.10;;;11.60;99.90;;;;;;4991937;28;20454;-67
2024/02/16 00:49:55;;;;;;;7.93;5.00;;;11.60;99.90;;;;;;4990776;28;20441;-68
2024/02/16 00:52:22;;;;;;;4.10;3.80;;;11.60;99.90;;;;;;4985357;28;20195;-68
2024/02/16 00:54:48;;;;;;;4.70;4.30;;;11.60;99.90;;;;;;4987713;28;20443;-68
2024/02/16 00:57:14;;;;;;;4.47;4.03;;;11.60;99.90;;;;;;4985393;28;20454;-68
2024/02/16 00:59:40;;;;;;;4.03;3.70;;;11.60;99.90;;;;;;4989244;28;20457;-68
2024/02/16 01:02:06;;;;;;;4.40;4.07;;;11.60;99.90;;;;;;4984738;28;20263;-68
2024/02/16 01:04:32;;;;;;;4.10;3.80;;;11.60;99.90;;;;;;4985171;28;20489;-68
2024/02/16 01:06:57;;;;;;;4.53;4.10;;;11.60;99.90;;;;;;4990740;28;20435;-68
2024/02/16 01:09:23;;;;;;;6.50;4.67;;;11.60;99.90;;;;;;4994635;28;20203;-68
2024/02/16 01:11:49;;;;;;;4.90;4.40;;;11.50;99.90;;;;;;4987688;28;20246;-68
2024/02/16 01:14:14;;;;;;;5.20;4.60;;;11.60;99.90;;;;;;4995226;28;20287;-68
2024/02/16 01:16:40;;;;;;;5.60;4.60;;;11.60;99.90;;;;;;4988978;28;20208;-68
2024/02/16 01:19:07;;;;;;;4.20;3.90;;;11.50;99.90;;;;;;4983187;28;20180;-68
2024/02/16 01:21:33;;;;;;;5.70;5.20;;;11.50;99.90;;;;;;4986952;28;20531;-68
2024/02/16 01:24:01;;;;;;;4.20;3.80;;;11.50;99.90;;;;;;4977426;28;20435;-68
2024/02/16 01:26:29;;;;;;;4.00;3.70;;;11.50;99.90;;;;;;4987207;28;20456;-68
2024/02/16 01:28:55;;;;;;;4.43;4.03;;;11.40;99.90;;;;;;4994450;28;20489;-68
2024/02/16 01:31:20;;;;;;;3.90;3.60;;;11.30;99.90;;;;;;4990462;28;20427;-67
2024/02/16 01:33:46;;;;;;;4.43;4.13;;;11.30;99.90;;;;;;4982230;28;20623;-67
2024/02/16 01:36:11;;;;;;;3.50;3.20;;;11.30;99.90;;;;;;4992918;28;20219;-68
2024/02/16 01:38:37;;;;;;;3.87;3.47;;;11.30;99.90;;;;;;4990096;28;20183;-69
2024/02/16 01:41:03;;;;;;;4.50;3.87;;;11.30;99.90;;;;;;4990866;28;20176;-69
2024/02/16 01:43:28;;;;;;;6.80;3.60;;;11.40;99.90;;;;;;4990690;28;20164;-69
2024/02/16 01:45:54;;;;;;;3.77;3.33;;;11.40;99.90;;;;;;4980506;28;20659;-69
2024/02/16 01:48:19;;;;;;;4.63;3.47;;;11.50;99.90;;;;;;4985518;28;20175;-69
2024/02/16 01:50:47;;;;;;;4.30;3.60;;;11.50;99.90;;;;;;4990911;28;20737;-68
2024/02/16 01:53:18;;;;;;;5.93;5.33;;;11.40;99.90;;;;;;4980737;28;20214;-68
2024/02/16 01:55:47;;;;;;;4.67;4.27;;;11.30;99.90;;;;;;4991534;28;21058;-68
2024/02/16 01:58:12;;;;;;;5.53;3.60;;;11.30;99.90;;;;;;4990426;28;20473;-69
2024/02/16 02:00:39;;;;;;;3.60;3.40;;;11.30;99.90;;;;;;4986567;28;20439;-68
2024/02/16 02:03:04;;;;;;;3.73;3.10;;;11.30;99.90;;;;;;4977488;28;20540;-68
2024/02/16 02:05:31;;;;;;;14.83;3.97;;;11.30;99.90;;;;;;4989932;28;20427;-68
2024/02/16 02:07:57;;;;;;;4.00;3.50;;;11.30;99.90;;;;;;4992788;28;20856;-68
2024/02/16 02:10:22;;;;;;;3.80;3.50;;;11.20;99.90;;;;;;4986904;28;20445;-68
2024/02/16 02:12:48;;;;;;;5.03;3.83;;;11.10;99.90;;;;;;4986637;28;20183;-68
2024/02/16 02:15:13;;;;;;;4.30;3.90;;;11.10;99.90;;;;;;4985450;28;20223;-68
2024/02/16 02:17:39;;;;;;;4.30;3.90;;;11.10;99.90;;;;;;4981420;28;20192;-68
2024/02/16 02:20:08;;;;;;;3.80;3.50;;;11.20;99.90;;;;;;4995002;28;20179;-68
2024/02/16 02:22:34;;;;;;;5.57;3.63;;;11.30;99.90;;;;;;4994958;28;20633;-68
2024/02/16 02:24:59;;;;;;;4.67;3.53;;;11.30;99.90;;;;;;4987265;28;20450;-68
2024/02/16 02:27:25;;;;;;;4.10;3.70;;;11.30;99.90;;;;;;4983240;28;20188;-68
2024/02/16 02:29:51;;;;;;;4.10;3.00;;;11.40;99.90;;;;;;4986272;28;20188;-68
2024/02/16 02:32:16;;;;;;;3.50;3.20;;;11.40;99.90;;;;;;4994390;28;20176;-68
2024/02/16 02:34:43;;;;;;;3.03;2.77;;;11.40;99.90;;;;;;4979130;28;20177;-68
2024/02/16 02:37:08;;;;;;;3.80;2.93;;;11.40;99.90;;;;;;4992677;28;20211;-68
2024/02/16 02:39:34;;;;;;;4.10;3.20;;;11.40;99.90;;;;;;4987731;28;20433;-68
2024/02/16 02:42:00;;;;;;;3.20;2.60;;;11.40;99.90;;;;;;4993153;28;20172;-69
2024/02/16 02:44:25;;;;;;;3.37;3.07;;;11.40;99.90;;;;;;4974782;28;20168;-69
2024/02/16 02:46:52;;;;;;;2.53;2.33;;;11.30;99.90;;;;;;4992482;28;20239;-68
2024/02/16 02:49:17;;;;;;;2.83;2.63;;;11.30;99.90;;;;;;4988440;28;20180;-68
2024/02/16 02:51:43;;;;;;;2.63;2.20;;;11.30;99.90;;;;;;4988894;28;20426;-68
2024/02/16 02:54:08;;;;;;;3.23;2.93;;;11.40;99.90;;;;;;4989289;28;20194;-69
2024/02/16 02:56:34;;;;;;;2.83;2.63;;;11.40;99.90;;;;;;4986429;28;20603;-68
2024/02/16 02:58:59;;;;;;;4.17;2.40;;;11.40;99.90;;;;;;4992221;28;20598;-69
2024/02/16 03:01:25;;;;;;;5.03;2.47;;;11.50;99.90;;;;;;4986344;28;20305;-69
2024/02/16 03:03:50;;;;;;;2.70;2.50;;;11.50;99.90;;;;;;4992212;28;20754;-69
2024/02/16 03:06:20;;;;;;;3.87;2.80;;;11.50;99.90;;;;;;4993581;28;20199;-69
2024/02/16 03:08:46;;;;;;;3.37;3.00;;;11.50;99.90;;;;;;4992570;28;20183;-69
2024/02/16 03:11:12;;;;;;;4.83;4.33;;;11.50;99.90;;;;;;4983000;28;20433;-69
2024/02/16 03:13:37;;;;;;;3.93;3.03;;;11.50;99.90;;;;;;4986557;28;20242;-69
2024/02/16 03:16:03;;;;;;;2.90;2.70;;;11.50;99.90;;;;;;4990822;28;20501;-69
2024/02/16 03:18:34;;;;;;;3.00;2.80;;;11.50;99.90;;;;;;4991025;28;20255;-69
2024/02/16 03:20:59;;;;;;;3.27;2.90;;;11.50;99.90;;;;;;4991838;28;20822;-69
2024/02/16 03:23:25;;;;;;;3.17;2.93;;;11.50;99.90;;;;;;4985325;28;20514;-69
2024/02/16 03:25:50;;;;;;;4.70;3.10;;;11.50;99.90;;;;;;4983505;28;20180;-69
2024/02/16 03:28:16;;;;;;;3.53;3.00;;;11.50;99.90;;;;;;4979022;28;20183;-68
2024/02/16 03:30:42;;;;;;;3.37;3.07;;;11.40;99.90;;;;;;4979364;28;20180;-69
2024/02/16 03:33:08;;;;;;;4.60;4.17;;;11.40;99.90;;;;;;4972121;28;20183;-69
2024/02/16 03:35:34;;;;;;;3.40;3.07;;;11.40;99.90;;;;;;4971887;28;21014;-69
2024/02/16 03:38:00;;;;;;;3.87;3.57;;;11.30;99.90;;;;;;4983651;28;20556;-68
2024/02/16 03:40:25;;;;;;;6.20;3.90;;;11.30;99.90;;;;;;4984555;28;20427;-69
2024/02/16 03:42:54;;;;;;;5.80;4.43;;;11.20;99.90;;;;;;4973741;28;20716;-69
2024/02/16 03:45:20;;;;;;;3.83;3.53;;;11.30;99.90;;;;;;4973506;28;20576;-69
2024/02/16 03:47:48;;;;;;;4.77;3.93;;;11.30;99.90;;;;;;4988020;28;20597;-69
2024/02/16 03:50:14;;;;;;;4.33;3.93;;;11.30;99.90;;;;;;4988052;28;20434;-69
2024/02/16 03:52:40;;;;;;;3.67;3.37;;;11.30;99.90;;;;;;4981193;28;20435;-69
2024/02/16 03:55:05;;;;;;;4.40;4.00;;;11.30;99.90;;;;;;4991172;28;20210;-69
2024/02/16 03:57:31;;;;;;;3.50;3.20;;;11.30;99.90;;;;;;4988576;28;20206;-69
2024/02/16 03:59:57;;;;;;;4.53;3.47;;;11.40;99.90;;;;;;4984649;28;20172;-69
2024/02/16 04:02:22;;;;;;;4.03;3.73;;;11.40;99.90;;;;;;4981127;28;20172;-69
2024/02/16 04:04:48;;;;;;;3.40;3.10;;;11.40;99.90;;;;;;4980460;28;20250;-69
2024/02/16 04:07:14;;;;;;;3.50;3.20;;;11.40;99.90;;;;;;4991550;28;20195;-69
2024/02/16 04:09:39;;;;;;;4.27;3.70;;;11.40;99.90;;;;;;4991015;28;20266;-69
2024/02/16 04:12:06;;;;;;;3.80;3.50;;;11.40;99.90;;;;;;4982840;28;20634;-69
2024/02/16 04:14:32;;;;;;;8.07;3.87;;;11.40;99.90;;;;;;4985258;28;20617;-69
2024/02/16 04:16:58;;;;;;;4.00;3.60;;;11.40;99.90;;;;;;4974507;28;20525;-69
2024/02/16 04:19:26;;;;;;;3.40;3.10;;;11.40;99.90;;;;;;4982727;28;20842;-69
2024/02/16 04:21:52;;;;;;;3.23;3.00;;;11.30;99.90;;;;;;4983960;28;20645;-69
2024/02/16 04:24:18;;;;;;;4.30;3.93;;;11.30;99.90;;;;;;4988415;28;20446;-69
2024/02/16 04:26:44;;;;;;;6.20;4.07;;;11.20;99.90;;;;;;4992151;28;20455;-69
2024/02/16 04:29:09;;;;;;;4.00;3.67;;;11.20;99.90;;;;;;4990241;28;20188;-69
2024/02/16 04:31:35;;;;;;;5.33;4.90;;;11.10;99.90;;;;;;4993386;28;20182;-69
2024/02/16 04:34:01;;;;;;;5.03;3.40;;;11.10;99.90;;;;;;4987632;28;20172;-69
2024/02/16 04:36:27;;;;;;;4.63;4.23;;;11.10;99.90;;;;;;4987785;28;20744;-69
2024/02/16 04:38:52;;;;;;;4.33;4.00;;;11.00;99.90;;;;;;4995542;28;20529;-69
2024/02/16 04:41:20;;;;;;;6.30;4.43;;;11.00;99.90;;;;;;4982996;28;20530;-69
2024/02/16 04:43:45;;;;;;;7.80;5.83;;;11.00;99.90;;;;;;4988222;28;20183;-69
2024/02/16 04:46:15;;;;;;;4.60;4.20;;;10.90;99.90;;;;;;4987157;28;20959;-69
2024/02/16 04:48:41;;;;;;;5.33;4.60;;;10.90;99.90;;;;;;4984160;28;20654;-69
2024/02/16 04:51:06;;;;;;;5.03;4.63;;;10.90;99.90;;;;;;4986971;28;20439;-68
2024/02/16 04:53:32;;;;;;;4.50;4.13;;;10.80;99.90;;;;;;4995322;28;20708;-69
2024/02/16 04:55:58;;;;;;;6.23;4.53;;;10.80;99.90;;;;;;4986621;28;20200;-69
2024/02/16 04:58:23;;;;;;;6.70;4.43;;;10.80;99.90;;;;;;4992802;28;20198;-70
2024/02/16 05:00:49;;;;;;;5.80;4.40;;;10.80;99.90;;;;;;4990040;28;20512;-69
2024/02/16 05:03:15;;;;;;;6.00;4.67;;;10.80;99.90;;;;;;4984507;28;20568;-69
2024/02/16 05:05:41;;;;;;;4.87;4.47;;;10.70;99.90;;;;;;4984223;28;20180;-69
2024/02/16 05:08:06;;;;;;;5.90;5.40;;;10.80;99.90;;;;;;4991048;28;20203;-69
2024/02/16 05:10:32;;;;;;;4.50;4.13;;;10.80;99.90;;;;;;4987892;28;20422;-69
2024/02/16 05:12:58;;;;;;;8.07;4.50;;;10.80;99.90;;;;;;4995669;28;20270;-69
2024/02/16 05:15:23;;;;;;;5.57;5.07;;;10.80;99.90;;;;;;4992839;28;20196;-69
2024/02/16 05:17:49;;;;;;;5.30;3.77;;;10.80;99.90;;;;;;4993447;28;20261;-69
2024/02/16 05:20:15;;;;;;;5.90;5.20;;;10.90;99.90;;;;;;4991080;28;20272;-69
2024/02/16 05:22:45;;;;;;;5.47;4.97;;;10.90;99.90;;;;;;4980877;28;20172;-69
2024/02/16 05:25:14;;;;;;;6.10;5.60;;;11.00;99.90;;;;;;4994473;28;20176;-69
2024/02/16 05:27:40;;;;;;;5.33;4.93;;;11.00;99.90;;;;;;4985659;28;20484;-69
2024/02/16 05:30:07;;;;;;;5.70;4.47;;;10.90;99.90;;;;;;4986706;28;20430;-68
2024/02/16 05:32:36;;;;;;;5.13;3.90;;;10.80;99.90;;;;;;4992548;28;20184;-68
2024/02/16 05:35:16;;;;;;;7.57;5.47;;;10.70;99.90;;;;;;4984171;28;20887;-69
2024/02/16 05:37:48;;;;;;;4.97;4.43;;;10.50;99.90;;;;;;4986156;28;20971;-69
2024/02/16 05:40:30;;;;;;;4.67;4.27;;;10.50;99.90;;;;;;4985130;28;20427;-69
2024/02/16 05:42:59;;;;;;;7.40;4.17;;;10.50;99.90;;;;;;4988579;28;20443;-69
2024/02/16 05:45:26;;;;;;;5.03;4.63;;;10.60;99.90;;;;;;4993997;28;20493;-68
2024/02/16 05:47:52;;;;;;;5.63;5.13;;;10.60;99.90;;;;;;4989737;28;20458;-69
2024/02/16 05:50:20;;;;;;;8.23;4.90;;;10.60;99.90;;;;;;4993679;28;20418;-69
2024/02/16 05:52:45;;;;;;;5.60;5.10;;;10.60;99.90;;;;;;4991210;28;20427;-69
2024/02/16 05:55:11;;;;;;;8.73;5.67;;;10.60;99.90;;;;;;4989440;28;20455;-69
2024/02/16 05:57:37;;;;;;;5.50;4.60;;;10.60;99.90;;;;;;4991887;28;20226;-69
2024/02/16 06:00:08;;;;;;;7.03;5.30;;;10.60;99.90;;;;;;4985823;28;20443;-69
2024/02/16 06:02:33;;;;;;;4.83;4.43;;;10.60;99.90;;;;;;4988463;28;20184;-69
2024/02/16 06:05:02;;;;;;;5.73;5.23;;;10.60;99.90;;;;;;4989852;28;20457;-68
2024/02/16 06:07:29;;;;;;;5.60;5.10;;;10.60;99.90;;;;;;4988795;28;20284;-69
2024/02/16 06:09:57;;;;;;;5.73;4.80;;;10.60;99.90;;;;;;4988977;28;20497;-69
2024/02/16 06:12:23;;;;;;;9.10;5.60;;;10.50;99.90;;;;;;4991396;28;20518;-69
2024/02/16 06:14:49;;;;;;;4.77;4.37;;;10.50;99.90;;;;;;4987641;28;20432;-70
2024/02/16 06:17:16;;;;;;;5.07;4.57;;;10.60;99.90;;;;;;4976618;28;20445;-69
2024/02/16 06:19:41;;;;;;;4.93;4.40;;;10.50;99.90;;;;;;4994393;28;20179;-69
2024/02/16 06:22:08;;;;;;;4.90;4.40;;;10.50;99.90;;;;;;4991345;28;20804;-69
2024/02/16 06:24:33;;;;;;;5.07;4.57;;;10.50;99.90;;;;;;4991402;28;20180;-69
2024/02/16 06:26:59;;;;;;;5.93;5.33;;;10.50;99.90;;;;;;4984503;28;20998;-69
2024/02/16 06:29:25;;;;;;;6.10;5.50;;;10.50;99.90;;;;;;4979214;28;20191;-69
2024/02/16 06:31:51;;;;;;;9.93;5.20;;;10.50;99.90;;;;;;4991815;28;20187;-69
2024/02/16 06:34:18;;;;;;;9.10;5.07;;;10.50;99.90;;;;;;4975172;28;20176;-69
2024/02/16 06:36:43;;;;;;;5.77;5.17;;;10.50;99.90;;;;;;4974450;28;20467;-69
2024/02/16 06:39:10;;;;;;;5.80;4.10;;;10.50;99.90;;;;;;4990915;28;20964;-69
2024/02/16 06:41:36;;;;;;;7.80;4.87;;;10.50;99.90;;;;;;4988908;28;20225;-69
2024/02/16 06:44:03;;;;;;;6.30;4.37;;;10.60;99.90;;;;;;4979087;28;20427;-69
2024/02/16 06:46:29;;;;;;;8.03;5.13;;;10.60;99.90;;;;;;4991666;28;20517;-69
2024/02/16 06:48:56;;;;;;;5.20;4.40;;;10.50;99.90;;;;;;4994112;28;20919;-68
2024/02/16 06:51:23;;;;;;;4.90;4.47;;;10.50;99.90;;;;;;4990796;28;20443;-69
2024/02/16 06:53:48;;;;;;;6.63;4.00;;;10.60;99.90;;;;;;4993419;28;20430;-69
2024/02/16 06:56:14;;;;;;;7.17;5.10;;;10.50;99.90;;;;;;4989043;28;20480;-69
2024/02/16 06:58:39;;;;;;;6.70;4.53;;;10.50;99.90;;;;;;4987730;28;20206;-69
2024/02/16 07:01:05;;;;;;;5.80;4.53;;;10.50;99.90;;;;;;4990742;28;22092;-69
2024/02/16 07:03:30;;;;;;;4.70;4.30;;;10.50;99.90;;;;;;4993574;28;20183;-68
2024/02/16 07:05:56;;;;;;;4.27;3.87;;;10.60;99.90;;;;;;4992468;28;20644;-67
2024/02/16 07:08:23;;;;;;;7.93;4.90;;;10.60;99.90;;;;;;4985071;28;20188;-68
2024/02/16 07:10:51;;;;;;;6.53;4.90;;;10.60;99.90;;;;;;4985363;28;20180;-68
2024/02/16 07:13:17;;;;;;;4.90;4.40;;;10.70;99.90;;;;;;4974181;28;20424;-66
2024/02/16 07:15:43;;;;;;;4.47;4.07;;;10.70;99.90;;;;;;4980278;28;20470;-67
2024/02/16 07:18:09;;;;;;;4.83;4.30;;;10.80;99.90;;;;;;4983862;28;20446;-67
2024/02/16 07:20:36;;;;;;;4.83;4.43;;;10.80;99.90;;;;;;4987445;28;20176;-67
2024/02/16 07:23:02;;;;;;;4.67;4.27;;;11.00;99.90;;;;;;4985813;28;20442;-67
2024/02/16 07:25:28;;;;;;;4.97;4.33;;;11.10;99.90;;;;;;4990059;28;20434;-67
2024/02/16 07:27:54;;;;;;;6.80;4.87;;;11.40;99.90;;;;;;4983293;28;20228;-67
2024/02/16 07:30:19;;;;;;;6.70;6.10;;;11.70;99.90;;;;;;4993317;28;20865;-67
2024/02/16 07:32:52;;;;;;;7.50;6.00;;;11.90;99.90;;;;;;4988566;28;20451;-67
2024/02/16 07:35:18;;;;;;;5.27;4.77;;;12.00;99.90;;;;;;4973956;28;20192;-67
2024/02/16 07:37:44;;;;;;;5.63;5.13;;;11.90;99.90;;;;;;4997819;23;20907;-67
2024/02/16 07:40:10;;;;;;;8.30;5.20;;;11.80;99.90;;;;;;4989630;28;20437;-67
2024/02/16 07:42:40;;;;;;;5.37;4.87;;;11.70;99.90;;;;;;4990226;28;20681;-67
2024/02/16 07:45:06;;;;;;;4.80;4.40;;;11.70;99.90;;;;;;4983845;28;20190;-67
2024/02/16 07:47:32;;;;;;;7.30;5.40;;;11.70;99.90;;;;;;4991616;28;20967;-67
2024/02/16 07:49:57;;;;;;;6.20;5.03;;;11.80;99.90;;;;;;4992943;28;20423;-67
2024/02/16 07:52:23;;;;;;;5.60;5.10;;;11.80;99.90;;;;;;4991365;28;20881;-67
2024/02/16 07:54:51;;;;;;;9.57;8.67;;;11.90;99.90;;;;;;4991525;28;20180;-67
2024/02/16 07:57:17;;;;;;;7.60;5.73;;;12.00;99.90;;;;;;4991029;28;20246;-67
2024/02/16 07:59:43;;;;;;;7.90;3.77;;;12.00;99.90;;;;;;4991839;28;20470;-67
2024/02/16 08:02:09;;;;;;;4.67;3.83;;;12.10;99.90;;;;;;4989553;28;20180;-67
2024/02/16 08:04:35;;;;;;;4.90;4.50;;;12.30;99.90;;;;;;4988695;28;20434;-67
2024/02/16 08:07:01;;;;;;;6.60;5.73;;;12.60;99.90;;;;;;4991268;28;20458;-67
2024/02/16 08:09:27;;;;;;;5.33;4.83;;;12.90;99.90;;;;;;4975085;28;20534;-67
2024/02/16 08:11:53;;;;;;;6.80;5.27;;;13.10;99.90;;;;;;4992284;28;20431;-67
2024/02/16 08:14:18;;;;;;;5.73;5.07;;;13.60;99.90;;;;;;4990455;28;20434;-66
2024/02/16 08:16:44;;;;;;;6.20;4.97;;;14.10;99.90;;;;;;4987519;28;20623;-67
2024/02/16 08:19:09;;;;;;;4.50;4.10;;;15.20;99.90;;;;;;4992022;28;20622;-67
2024/02/16 08:21:35;;;;;;;4.90;4.40;;;16.00;99.90;;;;;;4991745;28;20184;-67
2024/02/16 08:24:00;;;;;;;7.23;4.97;;;16.90;99.90;;;;;;4992198;28;20186;-67
2024/02/16 08:26:27;;;;;;;7.10;5.20;;;18.20;99.90;;;;;;4974013;28;20218;-66
2024/02/16 08:28:53;;;;;;;5.13;4.63;;;19.00;99.90;;;;;;4991971;28;20172;-67
2024/02/16 08:31:18;;;;;;;6.73;5.27;;;19.70;99.90;;;;;;4992328;28;20437;-67
2024/02/16 08:33:45;;;;;;;6.53;5.37;;;20.10;97.60;;;;;;4992367;28;20489;-67
2024/02/16 08:36:10;;;;;;;4.97;4.57;;;20.50;95.50;;;;;;4990981;28;20191;-67
2024/02/16 08:38:39;;;;;;;5.00;4.03;;;21.40;93.10;;;;;;4974057;28;20465;-67
2024/02/16 08:41:05;;;;;;;4.80;4.40;;;21.90;91.00;;;;;;4992016;28;20507;-67
2024/02/16 08:43:30;;;;;;;4.73;4.23;;;22.60;85.80;;;;;;4992057;28;20434;-67
2024/02/16 08:45:56;;;;;;;4.00;3.60;;;23.20;79.60;;;;;;4989232;28;20184;-67
2024/02/16 08:48:22;;;;;;;8.20;4.83;;;23.80;74.40;;;;;;4988992;28;20610;-68
2024/02/16 08:50:51;;;;;;;4.70;4.20;;;23.60;72.40;;;;;;4990061;28;20179;-67
2024/02/16 08:53:17;;;;;;;4.53;3.03;;;23.40;72.00;;;;;;4983776;28;20488;-67
2024/02/16 08:55:42;;;;;;;3.60;2.37;;;23.90;68.60;;;;;;4984162;28;20467;-68
2024/02/16 08:58:08;;;;;;;4.50;2.70;;;24.30;62.00;;;;;;4987627;28;20685;-68
2024/02/16 09:00:34;;;;;;;4.30;2.07;;;24.10;62.60;;;;;;4992695;28;22032;-70
2024/02/16 09:03:02;;;;;;;2.80;2.60;;;24.40;59.40;;;;;;4988927;28;20645;-68
2024/02/16 09:05:28;;;;;;;5.77;2.30;;;24.40;58.30;;;;;;4990270;28;20183;-68
2024/02/16 09:07:53;;;;;;;2.60;2.07;;;23.70;57.80;;;;;;4990748;28;20481;-67
2024/02/16 09:10:19;;;;;;;2.97;2.60;;;23.40;58.10;;;;;;4989562;28;20266;-68
2024/02/16 09:12:44;;;;;;;4.33;2.00;;;24.20;58.20;;;;;;4991412;28;20258;-68
2024/02/16 09:15:11;;;;;;;3.93;2.40;;;25.20;55.00;;;;;;4971420;28;20259;-69
2024/02/16 09:17:37;;;;;;;2.90;2.50;;;24.90;54.90;;;;;;4987094;28;20192;-68
2024/02/16 09:20:04;;;;;;;2.40;2.20;;;23.70;54.70;;;;;;4990461;28;20465;-68
2024/02/16 09:22:29;;;;;;;2.63;2.30;;;22.80;56.50;;;;;;4995262;28;20172;-68
2024/02/16 09:24:59;;;;;;;4.50;2.93;;;22.00;59.10;;;;;;4995650;28;20426;-68
2024/02/16 09:27:25;;;;;;;3.93;2.50;;;21.40;60.70;;;;;;4993837;28;20273;-68
2024/02/16 09:29:50;;;;;;;3.20;2.70;;;20.80;64.00;;;;;;4994327;28;20446;-68
2024/02/16 09:32:16;;;;;;;4.37;3.70;;;20.00;67.40;;;;;;4994853;28;20226;-68
2024/02/16 09:34:41;;;;;;;7.97;3.67;;;20.10;69.20;;;;;;4994361;28;20190;-68
2024/02/16 09:37:07;;;;;;;5.20;3.30;;;20.80;67.80;;;;;;4989762;28;20211;-68
2024/02/16 09:39:34;;;;;;;7.80;3.50;;;20.60;66.60;;;;;;4993472;28;20584;-67
2024/02/16 09:42:00;;;;;;;3.33;3.03;;;20.70;67.60;;;;;;4994419;28;20172;-67
2024/02/16 09:44:28;;;;;;;3.50;2.60;;;21.70;64.50;;;;;;4995028;28;20473;-67
2024/02/16 09:46:54;;;;;;;3.13;2.83;;;23.60;61.00;;;;;;4992861;28;20458;-68
2024/02/16 09:49:20;;;;;;;3.57;2.20;;;24.70;56.60;;;;;;4988483;28;20443;-69
2024/02/16 09:51:46;;;;;;;4.23;2.43;;;26.10;53.50;;;;;;4992421;28;20439;-68
2024/02/16 09:54:11;;;;;;;5.53;2.43;;;25.60;51.30;;;;;;4993346;28;20262;-68
2024/02/16 09:56:37;;;;;;;3.37;2.80;;;24.40;52.80;;;;;;4994067;28;20298;-68
2024/02/16 09:59:03;;;;;;;3.90;2.50;;;23.50;54.30;;;;;;4992996;28;20309;-68
2024/02/16 10:01:29;;;;;;;4.17;2.03;;;23.50;54.80;;;;;;4992123;28;20610;-68
2024/02/16 10:04:08;;;;;;;2.70;2.50;;;23.40;54.80;;;;;;4992941;28;20265;-68
2024/02/16 10:06:46;;;;;;;3.10;2.10;;;22.70;55.80;;;;;;4991936;28;20462;-68
2024/02/16 10:09:24;;;;;;;2.97;2.20;;;22.40;56.70;;;;;;4992827;28;20811;-68
2024/02/16 10:11:50;;;;;;;3.03;2.27;;;22.30;57.70;;;;;;4991167;28;20453;-68
2024/02/16 10:14:15;;;;;;;2.43;2.33;;;21.40;58.40;;;;;;4993769;28;20438;-68
2024/02/16 10:16:41;;;;;;;3.93;2.50;;;21.00;60.90;;;;;;4984676;28;20600;-67
2024/02/16 10:19:08;;;;;;;2.43;2.20;;;20.40;63.30;;;;;;4988009;28;20884;-67
2024/02/16 10:21:36;;;;;;;2.50;2.30;;;20.10;66.50;;;;;;4974976;28;20245;-67
2024/02/16 10:24:07;;;;;;;3.07;2.60;;;19.90;67.90;;;;;;4992038;28;20966;-67
2024/02/16 10:26:37;;;;;;;2.90;2.60;;;19.70;70.00;;;;;;4988423;28;20481;-67
2024/02/16 10:29:04;;;;;;;3.20;2.90;;;19.80;71.30;;;;;;4993130;28;20831;-67
2024/02/16 10:31:31;;;;;;;5.70;4.40;;;19.80;70.60;;;;;;4993911;28;20422;-67
2024/02/16 10:33:59;;;;;;;2.80;2.40;;;19.50;72.20;;;;;;4993486;28;20426;-67
2024/02/16 10:36:28;;;;;;;3.17;2.87;;;19.40;73.20;;;;;;4993160;28;20466;-68
2024/02/16 10:38:56;;;;;;;2.83;2.33;;;19.10;75.40;;;;;;4993712;28;20467;-67
2024/02/16 10:41:27;;;;;;;4.73;2.70;;;18.90;77.40;;;;;;4993500;28;20430;-67
2024/02/16 10:43:54;;;;;;;5.87;2.70;;;18.50;80.20;;;;;;4993773;28;20485;-67
2024/02/16 10:46:20;;;;;;;4.17;3.10;;;18.40;82.10;;;;;;4992744;28;20501;-67
2024/02/16 10:48:45;;;;;;;3.40;3.10;;;18.20;84.40;;;;;;4989487;28;20477;-63
2024/02/16 10:51:13;;;;;;;5.63;4.17;;;18.20;87.40;;;;;;4992340;28;20482;-62
2024/02/16 10:53:39;;;;;;;17.10;11.13;;;18.10;90.70;;;;;;4990002;28;20204;-62
2024/02/16 10:56:07;;;;;;;5.20;3.97;;;18.30;91.10;;;;;;4983098;28;20490;-62
2024/02/16 10:58:33;;;;;;;15.27;13.87;;;18.30;90.90;;;;;;4992076;28;20520;-63
2024/02/16 11:01:13;;;;;;;4.00;3.30;;;18.40;94.20;;;;;;4961769;28;20428;-63
2024/02/16 11:03:39;;;;;;;6.60;2.73;;;18.50;88.90;;;;;;4992797;28;20441;-64
2024/02/16 11:06:16;;;;;;;3.70;3.30;;;18.50;91.30;;;;;;4991659;28;20450;-64
2024/02/16 11:08:41;;;;;;;3.50;3.20;;;18.50;90.80;;;;;;4990925;28;20438;-64
2024/02/16 11:11:11;;;;;;;4.50;3.00;;;18.50;90.10;;;;;;4992415;28;20434;-65
2024/02/16 11:13:37;;;;;;;3.97;3.30;;;18.50;90.30;;;;;;4992390;28;20263;-66
2024/02/16 11:16:07;;;;;;;3.67;3.37;;;18.50;90.40;;;;;;4991737;28;20470;-67
2024/02/16 11:18:46;;;;;;;3.40;2.90;;;18.50;92.80;;;;;;4988757;28;20580;-67
2024/02/16 11:21:14;;;;;;;2.83;2.33;;;18.50;90.60;;;;;;4991425;28;20532;-66
2024/02/16 11:23:40;;;;;;;3.20;2.90;;;18.60;90.50;;;;;;4991148;28;20561;-66
2024/02/16 11:26:12;;;;;;;4.60;3.20;;;18.70;90.80;;;;;;4993237;28;20419;-66
2024/02/16 11:28:40;;;;;;;5.43;2.70;;;18.80;90.90;;;;;;4992468;28;20426;-66
2024/02/16 11:31:07;;;;;;;4.33;3.13;;;18.80;90.20;;;;;;4992027;28;20434;-66
2024/02/16 11:33:33;;;;;;;3.17;2.90;;;18.80;90.70;;;;;;4991041;28;20454;-66
2024/02/16 11:36:02;;;;;;;4.00;3.10;;;19.00;90.90;;;;;;4991734;28;20495;-67
2024/02/16 11:38:30;;;;;;;4.73;4.07;;;19.10;90.20;;;;;;4991431;28;20466;-66
2024/02/16 11:41:01;;;;;;;3.90;3.07;;;19.40;88.90;;;;;;4990905;28;20446;-67
2024/02/16 11:43:27;;;;;;;5.37;3.07;;;19.60;86.10;;;;;;4988622;28;20439;-66
2024/02/16 11:45:53;;;;;;;3.10;2.80;;;20.50;82.90;;;;;;4991916;28;20446;-66
2024/02/16 11:48:21;;;;;;;4.33;2.63;;;21.50;77.50;;;;;;4992527;28;20253;-66
2024/02/16 11:50:47;;;;;;;2.90;2.50;;;23.50;70.90;;;;;;4989802;28;20175;-66
2024/02/16 11:53:19;;;;;;;4.00;2.80;;;25.40;60.40;;;;;;4991943;28;20438;-67
2024/02/16 11:55:48;;;;;;;6.70;5.40;;;25.80;55.70;;;;;;4990235;28;20521;-67
2024/02/16 11:58:16;;;;;;;4.30;3.90;;;26.10;55.70;;;;;;4990584;28;20462;-67
2024/02/16 12:00:42;;;;;;;3.60;3.27;;;27.10;52.60;;;;;;4988795;28;21145;-67
2024/02/16 12:03:08;;;;;;;3.70;3.03;;;26.90;50.30;;;;;;4988005;28;20440;-67
2024/02/16 12:05:33;;;;;;;2.93;2.73;;;26.50;50.40;;;;;;4991164;28;20214;-66
2024/02/16 12:07:59;;;;;;;4.00;2.53;;;27.50;50.00;;;;;;4990648;28;20570;-66
2024/02/16 12:10:27;;;;;;;3.43;2.33;;;27.10;49.40;;;;;;4984188;28;20183;-66
2024/02/16 12:12:52;;;;;;;3.67;2.80;;;27.10;48.30;;;;;;4989601;28;20443;-66
2024/02/16 12:15:19;;;;;;;3.60;2.67;;;26.00;48.70;;;;;;4990953;28;20463;-66
2024/02/16 12:17:45;;;;;;;2.53;2.23;;;25.10;50.40;;;;;;4991216;28;20203;-66
2024/02/16 12:20:13;;;;;;;3.70;2.43;;;24.90;51.20;;;;;;4991589;28;20795;-66
2024/02/16 12:22:39;;;;;;;5.67;2.60;;;25.60;50.60;;;;;;4990704;28;20437;-66
2024/02/16 12:25:04;;;;;;;2.60;2.40;;;26.20;49.70;;;;;;4990400;28;20819;-66
2024/02/16 12:27:30;;;;;;;2.70;2.40;;;25.50;50.00;;;;;;4990337;28;20213;-66
2024/02/16 12:29:55;;;;;;;4.83;2.43;;;25.10;50.90;;;;;;4991448;28;20439;-66
2024/02/16 12:32:21;;;;;;;2.83;2.07;;;24.70;51.60;;;;;;4989374;28;20187;-66
2024/02/16 12:34:47;;;;;;;4.07;2.80;;;23.90;53.10;;;;;;4990255;28;20183;-66
2024/02/16 12:37:12;;;;;;;3.10;2.80;;;23.10;55.30;;;;;;4987593;28;20696;-66
2024/02/16 12:39:38;;;;;;;2.63;2.20;;;22.50;57.80;;;;;;4988931;28;20661;-66
2024/02/16 12:42:04;;;;;;;3.30;3.00;;;22.50;57.20;;;;;;4988946;28;20230;-66